createdAt,value
2023-03-27T00:02:09.376Z,99029.19
2023-03-27T00:04:36.389Z,99034.31
2023-03-27T00:07:03.867Z,99024.09
2023-03-27T00:09:32.274Z,99028.38
2023-03-27T00:12:01.122Z,99029.22
2023-03-27T00:14:28.703Z,99037.75
2023-03-27T00:16:57.498Z,99055.63
2023-03-27T00:19:25.218Z,99056.50
2023-03-27T00:21:53.484Z,99061.59
2023-03-27T00:24:20.506Z,99054.78
2023-03-27T00:26:47.662Z,99047.09
2023-03-27T00:29:14.755Z,99055.63
2023-03-27T00:31:42.172Z,99069.25
2023-03-27T00:34:11.013Z,99078.63
2023-03-27T00:36:38.003Z,99076.94
2023-03-27T00:39:05.299Z,99082.88
2023-03-27T00:41:34.070Z,99092.25
2023-03-27T00:44:01.169Z,99076.09
2023-03-27T00:46:44.999Z,99091.41
2023-03-27T00:49:15.334Z,99084.59
2023-03-27T00:51:43.283Z,99091.41
2023-03-27T00:54:12.229Z,99092.25
2023-03-27T00:56:39.681Z,99091.41
2023-03-27T00:59:12.686Z,99093.94
2023-03-27T01:01:40.585Z,99095.63
2023-03-27T01:04:09.273Z,99105.81
2023-03-27T01:06:38.096Z,99097.25
2023-03-27T01:09:05.649Z,99105.78
2023-03-27T01:12:07.139Z,99105.75
2023-03-27T01:14:44.502Z,99109.22
2023-03-27T01:17:39.147Z,99108.38
2023-03-27T01:20:32.642Z,99100.66
2023-03-27T01:23:02.492Z,99097.22
2023-03-27T01:26:00.151Z,99098.94
2023-03-27T01:28:37.316Z,99103.22
2023-03-27T01:31:42.022Z,99098.94
2023-03-27T01:34:29.466Z,99093.00
2023-03-27T01:37:14.985Z,99095.59
2023-03-27T01:40:05.256Z,99100.72
2023-03-27T01:42:39.563Z,99104.16
2023-03-27T01:45:34.985Z,99099.06
2023-03-27T01:48:12.038Z,99105.88
2023-03-27T01:50:51.890Z,99083.75
2023-03-27T01:53:34.455Z,99109.31
2023-03-27T01:56:08.724Z,99117.00
2023-03-27T01:58:46.201Z,99104.22
2023-03-27T02:01:18.848Z,99117.03
2023-03-27T02:03:50.429Z,99117.88
2023-03-27T02:06:42.068Z,99105.06
2023-03-27T02:09:23.070Z,99114.47
2023-03-27T02:11:56.717Z,99112.75
2023-03-27T02:14:28.738Z,99113.63
2023-03-27T02:17:00.432Z,99113.63
2023-03-27T02:19:35.236Z,99113.59
2023-03-27T02:22:02.526Z,99113.63
2023-03-27T02:24:43.596Z,99112.75
2023-03-27T02:27:22.495Z,99112.75
2023-03-27T02:30:08.576Z,99111.03
2023-03-27T02:32:49.121Z,99105.94
2023-03-27T02:36:00.558Z,99110.19
2023-03-27T02:38:47.991Z,99106.78
2023-03-27T02:41:48.214Z,99101.66
2023-03-27T02:44:51.719Z,99112.72
2023-03-27T02:47:48.843Z,99113.56
2023-03-27T02:50:25.745Z,99118.66
2023-03-27T02:53:01.296Z,99094.78
2023-03-27T02:55:40.355Z,99099.06
2023-03-27T02:58:17.314Z,99111.00
2023-03-27T03:01:09.563Z,99110.13
2023-03-27T03:04:03.709Z,99113.50
2023-03-27T03:06:54.995Z,99132.25
2023-03-27T03:09:22.423Z,99126.25
2023-03-27T03:11:52.777Z,99115.16
2023-03-27T03:14:25.068Z,99118.63
2023-03-27T03:16:52.244Z,99106.66
2023-03-27T03:19:19.235Z,99117.72
2023-03-27T03:21:47.088Z,99122.81
2023-03-27T03:24:14.013Z,99120.25
2023-03-27T03:26:41.012Z,99126.19
2023-03-27T03:29:08.012Z,99127.84
2023-03-27T03:31:44.597Z,99126.97
2023-03-27T03:34:14.937Z,99122.72
2023-03-27T03:36:43.195Z,99131.19
2023-03-27T03:39:12.765Z,99125.19
2023-03-27T03:41:40.049Z,99131.19
2023-03-27T03:44:07.794Z,99129.47
2023-03-27T03:46:34.900Z,99134.59
2023-03-27T03:49:01.983Z,99135.44
2023-03-27T03:51:29.125Z,99126.06
2023-03-27T03:53:56.130Z,99120.03
2023-03-27T03:56:24.324Z,99135.41
2023-03-27T03:58:52.715Z,99144.78
2023-03-27T04:01:20.818Z,99143.06
2023-03-27T04:03:52.128Z,99147.34
2023-03-27T04:06:25.703Z,99155.03
2023-03-27T04:08:58.435Z,99158.44
2023-03-27T04:11:38.531Z,99161.81
2023-03-27T04:14:24.039Z,99158.44
2023-03-27T04:16:53.597Z,99169.47
2023-03-27T04:19:25.945Z,99162.63
2023-03-27T04:22:02.653Z,99187.41
2023-03-27T04:24:33.533Z,99192.50
2023-03-27T04:27:03.398Z,99196.78
2023-03-27T04:29:48.344Z,99198.50
2023-03-27T04:32:34.693Z,99209.53
2023-03-27T04:35:21.527Z,99207.84
2023-03-27T04:37:56.418Z,99211.28
2023-03-27T04:40:46.219Z,99212.97
2023-03-27T04:43:13.649Z,99211.28
2023-03-27T04:45:40.615Z,99206.19
2023-03-27T04:48:07.894Z,99224.91
2023-03-27T04:50:36.128Z,99221.53
2023-03-27T04:53:03.472Z,99224.09
2023-03-27T04:55:40.659Z,99223.22
2023-03-27T04:58:09.116Z,99231.75
2023-03-27T05:00:38.685Z,99231.75
2023-03-27T05:03:06.464Z,99223.22
2023-03-27T05:05:42.333Z,99231.72
2023-03-27T05:08:09.972Z,99230.84
2023-03-27T05:10:37.017Z,99239.38
2023-03-27T05:13:04.374Z,99245.31
2023-03-27T05:15:33.719Z,99249.56
2023-03-27T05:18:02.969Z,99257.25
2023-03-27T05:20:31.618Z,99261.53
2023-03-27T05:23:04.789Z,99252.13
2023-03-27T05:25:33.183Z,99261.50
2023-03-27T05:28:03.370Z,99265.81
2023-03-27T05:30:33.016Z,99274.28
2023-03-27T05:33:23.640Z,99275.94
2023-03-27T05:35:52.921Z,99281.03
2023-03-27T05:38:20.728Z,99282.75
2023-03-27T05:41:10.119Z,99281.84
2023-03-27T05:43:41.865Z,99288.69
2023-03-27T05:46:09.080Z,99293.78
2023-03-27T05:48:38.763Z,99297.25
2023-03-27T05:51:06.691Z,99304.09
2023-03-27T05:53:36.408Z,99296.47
2023-03-27T05:56:27.156Z,99303.25
2023-03-27T05:58:57.868Z,99305.81
2023-03-27T06:01:26.326Z,99310.09
2023-03-27T06:03:56.419Z,99309.25
2023-03-27T06:07:02.649Z,99308.38
2023-03-27T06:09:31.694Z,99311.81
2023-03-27T06:12:17.369Z,99318.66
2023-03-27T06:14:45.289Z,99310.13
2023-03-27T06:17:27.616Z,99325.47
2023-03-27T06:20:15.688Z,99321.25
2023-03-27T06:22:55.785Z,99327.22
2023-03-27T06:25:32.388Z,99323.81
2023-03-27T06:28:00.347Z,99318.72
2023-03-27T06:30:29.519Z,99328.09
2023-03-27T06:33:21.707Z,99329.00
2023-03-27T06:35:52.958Z,99298.22
2023-03-27T06:38:32.150Z,99334.97
2023-03-27T06:41:01.009Z,99342.63
2023-03-27T06:43:54.247Z,99342.63
2023-03-27T06:46:45.175Z,99351.19
2023-03-27T06:49:16.500Z,99339.28
2023-03-27T06:51:43.557Z,99350.41
2023-03-27T06:54:13.604Z,99344.41
2023-03-27T06:56:45.595Z,99362.38
2023-03-27T06:59:17.741Z,99355.56
2023-03-27T07:01:48.099Z,99361.56
2023-03-27T07:04:33.613Z,99364.97
2023-03-27T07:07:29.974Z,99365.03
2023-03-27T07:09:57.300Z,99364.19
2023-03-27T07:12:27.222Z,99375.28
2023-03-27T07:14:54.841Z,99378.72
2023-03-27T07:17:31.894Z,99384.69
2023-03-27T07:20:06.511Z,99377.91
2023-03-27T07:22:34.076Z,99390.69
2023-03-27T07:25:07.059Z,99385.53
2023-03-27T07:27:39.671Z,99397.44
2023-03-27T07:30:09.284Z,99405.16
2023-03-27T07:32:37.916Z,99397.44
2023-03-27T07:35:08.701Z,99402.63
2023-03-27T07:37:56.375Z,99407.78
2023-03-27T07:40:43.621Z,99391.63
2023-03-27T07:43:28.989Z,99404.47
2023-03-27T07:45:58.016Z,99399.41
2023-03-27T07:48:28.058Z,99406.25
2023-03-27T07:51:10.761Z,99411.38
2023-03-27T07:53:41.726Z,99421.63
2023-03-27T07:56:23.684Z,99419.88
2023-03-27T07:59:08.540Z,99434.41
2023-03-27T08:01:35.898Z,99435.28
2023-03-27T08:04:04.060Z,99440.41
2023-03-27T08:06:33.770Z,99428.47
2023-03-27T08:09:02.833Z,99428.47
2023-03-27T08:11:31.250Z,99437.00
2023-03-27T08:13:59.809Z,99426.75
2023-03-27T08:16:30.225Z,99437.84
2023-03-27T08:19:00.932Z,99438.66
2023-03-27T08:21:32.002Z,99462.53
2023-03-27T08:24:01.528Z,99469.34
2023-03-27T08:26:49.481Z,99477.00
2023-03-27T08:29:16.800Z,99473.59
2023-03-27T08:31:47.243Z,99479.56
2023-03-27T08:34:15.799Z,99479.56
2023-03-27T08:36:49.119Z,99482.94
2023-03-27T08:39:17.438Z,99481.25
2023-03-27T08:41:56.491Z,99486.34
2023-03-27T08:44:39.111Z,99488.03
2023-03-27T08:47:19.628Z,99493.16
2023-03-27T08:49:57.712Z,99490.59
2023-03-27T08:52:36.233Z,99498.28
2023-03-27T08:55:12.398Z,99500.81
2023-03-27T08:57:50.368Z,99511.06
2023-03-27T09:00:27.397Z,99508.50
2023-03-27T09:03:23.254Z,99508.53
2023-03-27T09:06:06.675Z,99503.41
2023-03-27T09:08:53.318Z,99504.28
2023-03-27T09:11:46.493Z,99513.66
2023-03-27T09:14:30.557Z,99513.66
2023-03-27T09:17:01.174Z,99509.47
2023-03-27T09:19:44.325Z,99518.94
2023-03-27T09:22:23.127Z,99513.03
2023-03-27T09:25:15.401Z,99513.91
2023-03-27T09:28:01.848Z,99505.34
2023-03-27T09:30:53.193Z,99516.47
2023-03-27T09:33:28.450Z,99516.47
2023-03-27T09:35:58.512Z,99512.19
2023-03-27T09:38:31.983Z,99519.03
2023-03-27T09:41:06.919Z,99524.13
2023-03-27T09:43:49.509Z,99520.72
2023-03-27T09:46:20.399Z,99527.56
2023-03-27T09:49:03.187Z,99536.09
2023-03-27T09:51:54.751Z,99537.84
2023-03-27T09:54:53.831Z,99532.69
2023-03-27T09:57:35.771Z,99536.97
2023-03-27T10:00:25.350Z,99536.09
2023-03-27T10:03:04.010Z,99537.81
2023-03-27T10:05:32.984Z,99551.50
2023-03-27T10:08:02.151Z,99560.03
2023-03-27T10:10:57.915Z,99574.50
2023-03-27T10:13:37.374Z,99577.03
2023-03-27T10:16:06.202Z,99578.72
2023-03-27T10:18:50.158Z,99577.03
2023-03-27T10:21:44.453Z,99576.97
2023-03-27T10:24:26.588Z,99570.16
2023-03-27T10:27:21.907Z,99562.56
2023-03-27T10:30:35.513Z,99556.63
2023-03-27T10:33:37.708Z,99565.19
2023-03-27T10:36:18.959Z,99561.78
2023-03-27T10:38:56.545Z,99563.47
2023-03-27T10:41:48.103Z,99565.19
2023-03-27T10:44:18.564Z,99575.44
2023-03-27T10:46:53.552Z,99585.69
2023-03-27T10:49:44.743Z,99585.69
2023-03-27T10:52:40.936Z,99584.00
2023-03-27T10:55:52.038Z,99588.28
2023-03-27T10:58:23.793Z,99599.38
2023-03-27T11:00:59.053Z,99606.22
2023-03-27T11:03:30.254Z,99606.19
2023-03-27T11:06:07.857Z,99609.59
2023-03-27T11:08:54.845Z,99604.50
2023-03-27T11:11:32.856Z,99604.50
2023-03-27T11:14:05.891Z,99597.69
2023-03-27T11:16:39.423Z,99596.84
2023-03-27T11:19:52.749Z,99619.06
2023-03-27T11:23:05.774Z,99599.38
2023-03-27T11:25:47.302Z,99617.34
2023-03-27T11:28:39.896Z,99623.31
2023-03-27T11:31:46.487Z,99631.84
2023-03-27T11:34:34.692Z,99639.53
2023-03-27T11:37:30.831Z,99641.25
2023-03-27T11:40:10.090Z,99640.44
2023-03-27T11:42:42.753Z,99647.28
2023-03-27T11:45:16.083Z,99648.13
2023-03-27T11:48:25.436Z,99640.47
2023-03-27T11:50:58.795Z,99658.41
2023-03-27T11:53:29.188Z,99662.69
2023-03-27T11:56:10.835Z,99670.34
2023-03-27T11:59:07.945Z,99672.03
2023-03-27T12:01:51.393Z,99672.84
2023-03-27T12:04:37.272Z,99682.22
2023-03-27T12:07:42.198Z,99683.94
2023-03-27T12:10:25.332Z,99675.47
2023-03-27T12:13:40.615Z,99664.38
2023-03-27T12:16:25.856Z,99666.13
2023-03-27T12:19:28.434Z,99671.22
2023-03-27T12:22:24.804Z,99679.75
2023-03-27T12:25:17.547Z,99679.78
2023-03-27T12:28:04.948Z,99673.81
2023-03-27T12:31:13.581Z,99681.53
2023-03-27T12:33:59.888Z,99682.41
2023-03-27T12:36:31.166Z,99693.50
2023-03-27T12:38:59.446Z,99689.22
2023-03-27T12:41:33.739Z,99703.75
2023-03-27T12:44:13.196Z,99708.00
2023-03-27T12:47:21.719Z,99719.91
2023-03-27T12:50:01.334Z,99723.28
2023-03-27T12:52:35.134Z,99730.13
2023-03-27T12:55:18.620Z,99727.53
2023-03-27T12:57:58.676Z,99724.16
2023-03-27T13:00:53.757Z,99726.84
2023-03-27T13:03:25.097Z,99726.84
2023-03-27T13:06:12.858Z,99739.63
2023-03-27T13:08:58.460Z,99742.97
2023-03-27T13:11:33.908Z,99748.03
2023-03-27T13:14:49.139Z,99749.75
2023-03-27T13:17:57.100Z,99743.03
2023-03-27T13:20:50.124Z,99729.41
2023-03-27T13:23:39.159Z,99746.59
2023-03-27T13:26:21.627Z,99745.72
2023-03-27T13:28:54.608Z,99748.28
2023-03-27T13:31:52.054Z,99746.56
2023-03-27T13:34:41.810Z,99752.56
2023-03-27T13:37:14.439Z,99755.09
2023-03-27T13:40:02.323Z,99768.75
2023-03-27T13:42:40.348Z,99772.09
2023-03-27T13:45:08.222Z,99779.75
2023-03-27T13:47:58.921Z,99772.06
2023-03-27T13:50:55.285Z,99776.38
2023-03-27T13:53:52.117Z,99788.38
2023-03-27T13:56:41.010Z,99787.53
2023-03-27T13:59:38.883Z,99787.53
2023-03-27T14:02:29.439Z,99785.84
2023-03-27T14:05:22.835Z,99792.72
2023-03-27T14:08:14.492Z,99798.72
2023-03-27T14:11:21.915Z,99796.16
2023-03-27T14:14:05.002Z,99797.84
2023-03-27T14:16:54.673Z,99814.97
2023-03-27T14:20:06.975Z,99816.66
2023-03-27T14:22:49.000Z,99820.03
2023-03-27T14:25:26.166Z,99828.53
2023-03-27T14:28:00.359Z,99826.84
2023-03-27T14:30:40.742Z,99839.66
2023-03-27T14:33:31.067Z,99832.72
2023-03-27T14:36:05.708Z,99838.63
2023-03-27T14:38:37.426Z,99847.06
2023-03-27T14:41:18.310Z,99860.66
2023-03-27T14:43:52.452Z,99859.69
2023-03-27T14:46:22.624Z,99855.38
2023-03-27T14:48:58.339Z,99852.75
2023-03-27T14:51:42.266Z,99867.44
2023-03-27T14:54:26.969Z,99870.06
2023-03-27T14:57:00.838Z,99874.38
2023-03-27T14:59:38.004Z,99876.13
2023-03-27T15:02:26.699Z,99880.47
2023-03-27T15:05:03.570Z,99886.47
2023-03-27T15:07:36.310Z,99883.09
2023-03-27T15:10:23.765Z,99900.13
2023-03-27T15:13:12.115Z,99892.41
2023-03-27T15:15:50.306Z,99875.28
2023-03-27T15:18:20.754Z,99895.81
2023-03-27T15:20:50.630Z,99892.34
2023-03-27T15:23:36.965Z,99882.94
2023-03-27T15:26:27.464Z,99905.19
2023-03-27T15:29:08.300Z,99912.91
2023-03-27T15:31:36.797Z,99908.59
2023-03-27T15:34:12.769Z,99920.56
2023-03-27T15:36:43.258Z,99932.53
2023-03-27T15:39:21.393Z,99931.59
2023-03-27T15:41:56.059Z,99935.78
2023-03-27T15:44:26.045Z,99943.44
2023-03-27T15:46:54.834Z,99945.91
2023-03-27T15:49:27.911Z,99941.59
2023-03-27T15:51:57.036Z,99945.00
2023-03-27T15:54:31.323Z,99950.09
2023-03-27T15:57:11.555Z,99947.50
2023-03-27T15:59:53.056Z,99944.84
2023-03-27T16:02:24.705Z,99949.16
2023-03-27T16:04:55.850Z,99955.13
2023-03-27T16:07:46.552Z,99958.47
2023-03-27T16:10:15.577Z,99959.28
2023-03-27T16:13:03.074Z,99961.84
2023-03-27T16:15:41.652Z,99948.91
2023-03-27T16:18:39.514Z,99976.38
2023-03-27T16:21:13.526Z,99979.75
2023-03-27T16:23:41.107Z,99951.38
2023-03-27T16:26:14.306Z,99983.16
2023-03-27T16:28:41.808Z,99988.22
2023-03-27T16:31:14.394Z,99995.06
2023-03-27T16:33:45.494Z,99998.47
2023-03-27T16:36:14.093Z,99995.00
2023-03-27T16:38:42.287Z,100005.16
2023-03-27T16:41:14.750Z,99999.97
2023-03-27T16:43:42.887Z,100008.41
2023-03-27T16:46:22.582Z,100020.41
2023-03-27T16:48:53.784Z,100018.66
2023-03-27T16:51:22.623Z,100021.88
2023-03-27T16:53:50.260Z,100026.91
2023-03-27T16:56:17.426Z,100031.00
2023-03-27T16:58:44.882Z,100040.31
2023-03-27T17:01:12.108Z,100051.44
2023-03-27T17:03:41.368Z,100054.00
2023-03-27T17:06:11.566Z,100059.03
2023-03-27T17:08:38.921Z,100063.16
2023-03-27T17:11:09.226Z,100064.78
2023-03-27T17:13:36.400Z,100069.00
2023-03-27T17:16:04.595Z,100062.91
2023-03-27T17:18:34.284Z,100075.69
2023-03-27T17:21:01.461Z,100070.53
2023-03-27T17:23:28.736Z,100084.13
2023-03-27T17:25:59.895Z,100087.44
2023-03-27T17:28:27.056Z,100083.94
2023-03-27T17:31:04.747Z,100091.53
2023-03-27T17:33:33.677Z,100087.13
2023-03-27T17:36:01.248Z,100096.53
2023-03-27T17:38:28.789Z,100093.06
2023-03-27T17:40:55.850Z,100099.09
2023-03-27T17:43:22.883Z,100104.13
2023-03-27T17:45:51.247Z,100098.91
2023-03-27T17:48:18.665Z,100110.81
2023-03-27T17:51:01.209Z,100106.41
2023-03-27T17:53:36.696Z,100105.50
2023-03-27T17:56:04.464Z,100101.19
2023-03-27T17:58:34.270Z,100098.53
2023-03-27T18:01:11.796Z,100096.84
2023-03-27T18:03:39.163Z,100102.00
2023-03-27T18:06:06.804Z,100107.06
2023-03-27T18:08:34.402Z,100104.50
2023-03-27T18:11:01.616Z,100106.94
2023-03-27T18:13:30.639Z,100112.88
2023-03-27T18:15:58.731Z,100114.50
2023-03-27T18:18:26.446Z,100120.41
2023-03-27T18:20:54.986Z,100114.41
2023-03-27T18:23:22.369Z,100121.94
2023-03-27T18:25:49.548Z,100128.66
2023-03-27T18:28:16.755Z,100104.59
2023-03-27T18:30:44.431Z,100116.56
2023-03-27T18:33:11.842Z,100119.91
2023-03-27T18:35:39.375Z,100126.69
2023-03-27T18:38:06.713Z,100127.47
2023-03-27T18:40:36.758Z,100124.09
2023-03-27T18:43:03.876Z,100129.09
2023-03-27T18:45:31.147Z,100130.75
2023-03-27T18:47:58.362Z,100131.53
2023-03-27T18:50:25.697Z,100124.47
2023-03-27T18:52:53.708Z,100127.72
2023-03-27T18:55:21.228Z,100131.00
2023-03-27T18:57:48.504Z,100123.09
2023-03-27T19:00:18.900Z,100123.69
2023-03-27T19:02:48.114Z,100121.75
2023-03-27T19:05:18.061Z,100125.81
2023-03-27T19:07:46.238Z,100118.88
2023-03-27T19:10:14.621Z,100107.63
2023-03-27T19:12:45.659Z,100117.75
2023-03-27T19:15:33.218Z,100122.66
2023-03-27T19:18:03.862Z,100114.03
2023-03-27T19:20:49.877Z,100118.88
2023-03-27T19:23:37.535Z,100117.00
2023-03-27T19:26:09.999Z,100117.66
2023-03-27T19:28:40.938Z,100108.94
2023-03-27T19:31:09.895Z,100114.88
2023-03-27T19:33:38.075Z,100111.41
2023-03-27T19:36:06.746Z,100104.50
2023-03-27T19:38:34.226Z,100104.34
2023-03-27T19:41:02.485Z,100107.66
2023-03-27T19:43:32.599Z,100101.59
2023-03-27T19:46:14.721Z,100097.19
2023-03-27T19:48:44.692Z,100085.16
2023-03-27T19:51:23.140Z,100095.31
2023-03-27T19:53:52.496Z,100088.50
2023-03-27T19:56:22.623Z,100084.22
2023-03-27T19:58:50.051Z,100081.69
2023-03-27T20:01:20.032Z,100080.00
2023-03-27T20:03:47.652Z,100074.06
2023-03-27T20:06:18.553Z,100075.66
2023-03-27T20:08:46.146Z,100063.63
2023-03-27T20:11:15.868Z,100069.59
2023-03-27T20:13:55.453Z,100066.19
2023-03-27T20:16:26.480Z,100057.63
2023-03-27T20:19:06.470Z,100061.75
2023-03-27T20:21:37.891Z,100057.47
2023-03-27T20:24:10.212Z,100066.91
2023-03-27T20:26:42.269Z,100070.28
2023-03-27T20:29:18.904Z,100064.44
2023-03-27T20:31:46.829Z,100053.44
2023-03-27T20:34:14.635Z,100035.44
2023-03-27T20:36:43.540Z,100046.75
2023-03-27T20:39:22.853Z,100047.59
2023-03-27T20:41:51.371Z,100036.50
2023-03-27T20:44:18.419Z,100032.34
2023-03-27T20:46:52.210Z,100035.72
2023-03-27T20:51:57.854Z,100024.63
2023-03-27T20:54:24.886Z,100030.44
2023-03-27T20:56:52.114Z,100023.69
2023-03-27T20:59:19.249Z,100019.38
2023-03-27T21:01:46.630Z,100007.34
2023-03-27T21:04:15.456Z,100015.94
2023-03-27T21:06:43.097Z,100005.91
2023-03-27T21:09:14.060Z,100000.00
2023-03-27T21:11:41.611Z,99997.47
2023-03-27T21:14:08.667Z,100001.72
2023-03-27T21:16:35.986Z,100000.06
2023-03-27T21:19:03.177Z,99996.47
2023-03-27T21:21:34.671Z,100002.50
2023-03-27T21:24:01.837Z,99993.00
2023-03-27T21:26:28.794Z,99989.47
2023-03-27T21:28:56.467Z,99992.84
2023-03-27T21:31:23.665Z,99989.47
2023-03-27T21:33:50.802Z,99985.94
2023-03-27T21:36:17.955Z,99989.31
2023-03-27T21:38:45.389Z,99984.97
2023-03-27T21:41:15.667Z,99987.44
2023-03-27T21:43:42.889Z,99991.72
2023-03-27T21:46:10.862Z,99987.34
2023-03-27T21:48:40.632Z,99975.34
2023-03-27T21:51:09.043Z,99974.47
2023-03-27T21:53:36.351Z,99972.72
2023-03-27T21:56:04.331Z,99976.03
2023-03-27T21:58:31.366Z,99971.56
2023-03-27T22:00:59.177Z,99966.41
2023-03-27T22:03:28.670Z,99966.41
2023-03-27T22:06:10.142Z,99981.75
2023-03-27T22:08:38.515Z,99982.78
2023-03-27T22:11:05.853Z,99975.28
2023-03-27T22:13:36.306Z,99970.44
2023-03-27T22:16:15.877Z,99965.38
2023-03-27T22:18:43.987Z,99960.44
2023-03-27T22:21:19.921Z,99957.16
2023-03-27T22:23:49.107Z,99966.59
2023-03-27T22:26:17.012Z,99964.97
2023-03-27T22:28:44.402Z,99960.75
2023-03-27T22:31:11.704Z,99945.66
2023-03-27T22:33:39.192Z,99956.81
2023-03-27T22:36:10.719Z,99939.84
2023-03-27T22:38:38.198Z,99934.78
2023-03-27T22:41:07.293Z,99950.03
2023-03-27T22:43:34.787Z,99938.91
2023-03-27T22:46:11.104Z,99951.88
2023-03-27T22:48:38.717Z,99937.50
2023-03-27T22:51:06.276Z,99951.22
2023-03-27T22:53:33.721Z,99942.72
2023-03-27T22:56:03.199Z,99935.09
2023-03-27T22:58:31.477Z,99929.25
2023-03-27T23:00:59.090Z,99923.47
2023-03-27T23:03:28.002Z,99922.66
2023-03-27T23:05:55.623Z,99914.97
2023-03-27T23:08:27.381Z,99921.13
2023-03-27T23:10:57.445Z,99915.97
2023-03-27T23:13:26.554Z,99924.53
2023-03-27T23:15:54.224Z,99917.56
2023-03-27T23:18:24.745Z,99932.81
2023-03-27T23:21:00.887Z,99917.28
2023-03-27T23:23:29.385Z,99915.56
2023-03-27T23:26:00.221Z,99917.28
2023-03-27T23:28:31.453Z,99917.28
2023-03-27T23:31:01.424Z,99915.47
2023-03-27T23:33:32.881Z,99913.81
2023-03-27T23:36:06.744Z,99910.38
2023-03-27T23:38:34.248Z,99908.66
2023-03-27T23:41:02.680Z,99906.88
2023-03-27T23:43:31.730Z,99901.03
2023-03-27T23:45:59.751Z,99906.94
2023-03-27T23:48:30.898Z,99888.22
2023-03-27T23:50:58.461Z,99893.38
2023-03-27T23:53:27.679Z,99873.75
2023-03-27T23:55:56.416Z,99890.84
2023-03-27T23:58:24.997Z,99881.31
